Time;durP1;ratioP1;P1;durP2;ratioP2;P2;SDS_P1;SDS_P2;PMS_P1;PMS_P2;Temp;Humidity;BMP_temperature;BMP_pressure;BME280_temperature;BME280_humidity;BME280_pressure;Samples;Min_cycle;Max_cycle;Signal;HPM_P1;HPM_P2
2022/03/11 00:01:37;;;;;;;37.80;10.77;;;-5.00;1.00;;;;;;4482914;27;656382;-74
2022/03/11 00:04:25;;;;;;;30.08;8.38;;;-5.00;1.00;;;;;;4506192;27;655928;-73
2022/03/11 00:07:13;;;;;;;24.83;7.73;;;-5.00;1.00;;;;;;4488283;27;654402;-73
2022/03/11 00:10:00;;;;;;;24.00;7.18;;;-4.90;1.00;;;;;;4507265;27;654451;-74
2022/03/11 00:12:47;;;;;;;20.03;6.73;;;-4.90;1.00;;;;;;4488297;27;654992;-74
2022/03/11 00:15:37;;;;;;;21.40;7.77;;;-4.90;1.00;;;;;;4507360;27;656120;-74
2022/03/11 00:18:24;;;;;;;28.00;7.93;;;-4.90;1.00;;;;;;4482884;27;655547;-74
2022/03/11 00:21:22;;;;;;;31.70;9.27;;;-4.90;1.00;;;;;;4488461;27;655144;-73
2022/03/11 00:24:11;;;;;;;39.67;11.57;;;-4.90;1.00;;;;;;4484179;27;654892;-73
2022/03/11 00:27:03;;;;;;;53.27;16.53;;;-4.90;1.00;;;;;;4482746;27;656285;-73
2022/03/11 00:29:55;;;;;;;48.63;16.23;;;-5.00;1.00;;;;;;4474597;27;655802;-73
2022/03/11 00:32:46;;;;;;;53.40;14.13;;;-5.00;1.00;;;;;;4486876;27;656463;-73
2022/03/11 00:35:38;;;;;;;30.27;10.00;;;-5.00;1.00;;;;;;4482721;27;656135;-74
2022/03/11 00:38:34;;;;;;;52.25;14.60;;;-5.00;1.00;;;;;;4478547;27;655692;-73
2022/03/11 00:41:23;;;;;;;35.97;10.50;;;-5.00;1.00;;;;;;4486130;27;655251;-73
2022/03/11 00:44:18;;;;;;;24.00;8.33;;;-5.00;1.00;;;;;;4495871;27;655384;-73
2022/03/11 00:47:09;;;;;;;81.23;19.40;;;-5.10;1.00;;;;;;4482992;27;654312;-73
2022/03/11 00:50:00;;;;;;;76.33;18.37;;;-5.10;1.00;;;;;;4460189;27;656027;-73
2022/03/11 00:52:52;;;;;;;62.03;17.40;;;-5.10;1.00;;;;;;4482558;27;656773;-74
2022/03/11 00:55:46;;;;;;;167.87;44.50;;;-5.10;1.00;;;;;;4481951;27;655435;-74
2022/03/11 00:58:39;;;;;;;87.03;24.27;;;-5.20;1.00;;;;;;4456347;27;658026;-74
2022/03/11 01:01:34;;;;;;;145.70;33.00;;;-5.20;1.00;;;;;;4463217;27;655538;-73
2022/03/11 01:04:26;;;;;;;113.33;26.03;;;-5.30;1.00;;;;;;4461504;27;656467;-73
2022/03/11 01:07:16;;;;;;;120.73;28.67;;;-5.30;1.00;;;;;;4480739;27;657716;-73
2022/03/11 01:10:06;;;;;;;52.17;13.60;;;-5.30;1.00;;;;;;4480502;27;657108;-74
2022/03/11 01:12:54;;;;;;;63.53;17.13;;;-5.30;1.00;;;;;;4481897;27;656894;-73
2022/03/11 01:15:43;;;;;;;65.50;17.60;;;-5.30;1.00;;;;;;4486112;27;655553;-73
2022/03/11 01:18:35;;;;;;;67.78;18.33;;;-5.30;1.00;;;;;;4486104;27;656040;-73
2022/03/11 01:21:25;;;;;;;62.53;16.87;;;-5.30;1.00;;;;;;4486004;27;656507;-74
2022/03/11 01:24:14;;;;;;;46.80;13.93;;;-5.30;1.00;;;;;;4482157;27;656199;-73
2022/03/11 01:27:02;;;;;;;70.33;21.67;;;-5.40;1.00;;;;;;4485529;27;655653;-73
2022/03/11 01:29:49;;;;;;;80.70;22.77;;;-5.40;1.00;;;;;;4504717;27;656355;-73
2022/03/11 01:32:36;;;;;;;70.83;20.47;;;-5.40;1.00;;;;;;4485642;27;655335;-73
2022/03/11 01:35:24;;;;;;;52.78;14.18;;;-5.40;1.00;;;;;;4504567;27;656274;-73
2022/03/11 01:38:12;;;;;;;49.37;15.07;;;-5.40;1.00;;;;;;4484867;27;655166;-73
2022/03/11 01:41:00;;;;;;;45.30;15.07;;;-5.50;1.00;;;;;;4504614;27;657180;-73
2022/03/11 01:43:52;;;;;;;29.70;10.05;;;-5.50;1.00;;;;;;4485443;27;656142;-73
2022/03/11 01:46:40;;;;;;;36.83;11.80;;;-5.50;1.00;;;;;;4481241;27;655836;-73
2022/03/11 01:49:27;;;;;;;36.20;12.00;;;-5.50;1.00;;;;;;4485611;27;655483;-73
2022/03/11 01:52:15;;;;;;;42.10;12.40;;;-5.50;1.00;;;;;;4504476;27;655101;-73
2022/03/11 01:55:02;;;;;;;43.43;11.63;;;-5.60;1.00;;;;;;4485333;27;655408;-74
2022/03/11 01:57:51;;;;;;;33.23;10.17;;;-5.60;1.00;;;;;;4504457;27;655871;-73
2022/03/11 02:00:40;;;;;;;36.20;11.13;;;-5.60;1.00;;;;;;4481640;27;655906;-73
2022/03/11 02:03:27;;;;;;;22.47;7.30;;;-5.60;1.00;;;;;;4483045;27;655737;-73
2022/03/11 02:06:15;;;;;;;33.57;10.67;;;-5.60;1.00;;;;;;4505498;27;654774;-74
2022/03/11 02:09:03;;;;;;;28.63;10.10;;;-5.60;1.00;;;;;;4483222;27;655934;-73
2022/03/11 02:11:51;;;;;;;30.33;10.00;;;-5.60;1.00;;;;;;4505117;27;655582;-72
2022/03/11 02:14:40;;;;;;;26.70;9.67;;;-5.60;1.00;;;;;;4508248;27;656495;-73
2022/03/11 02:17:27;;;;;;;27.93;9.43;;;-5.60;1.00;;;;;;4490111;27;655135;-73
2022/03/11 02:20:15;;;;;;;27.10;10.52;;;-5.70;1.00;;;;;;4509318;27;654822;-73
2022/03/11 02:23:02;;;;;;;32.93;10.40;;;-5.70;1.00;;;;;;4489004;27;656612;-73
2022/03/11 02:25:51;;;;;;;33.40;10.32;;;-5.70;1.00;;;;;;4505287;27;654982;-73
2022/03/11 02:28:39;;;;;;;27.03;9.90;;;-5.70;1.00;;;;;;4484895;27;656254;-73
2022/03/11 02:31:28;;;;;;;28.13;10.03;;;-5.70;1.00;;;;;;4490178;27;654538;-72
2022/03/11 02:34:16;;;;;;;42.97;11.00;;;-5.70;1.00;;;;;;4507339;27;655400;-73
2022/03/11 02:37:04;;;;;;;27.03;9.53;;;-5.80;1.00;;;;;;4484855;27;655902;-73
2022/03/11 02:39:52;;;;;;;30.30;10.20;;;-5.80;1.00;;;;;;4489431;27;654357;-73
2022/03/11 02:42:41;;;;;;;24.57;8.83;;;-5.80;1.00;;;;;;4507609;27;656859;-73
2022/03/11 02:45:28;;;;;;;27.85;9.80;;;-5.80;1.00;;;;;;4490028;27;654425;-72
2022/03/11 02:48:16;;;;;;;31.10;10.48;;;-5.80;1.00;;;;;;4492267;27;654529;-71
2022/03/11 02:51:04;;;;;;;34.00;10.37;;;-5.80;1.00;;;;;;4507404;27;656123;-74
2022/03/11 02:53:51;;;;;;;30.90;10.43;;;-5.90;1.00;;;;;;4488471;27;655743;-73
2022/03/11 02:56:38;;;;;;;28.63;9.83;;;-5.90;1.00;;;;;;4507147;27;656496;-74
2022/03/11 02:59:27;;;;;;;30.17;9.87;;;-5.90;1.00;;;;;;4491629;27;654473;-73
2022/03/11 03:02:15;;;;;;;30.23;10.30;;;-5.90;1.00;;;;;;4508536;27;654541;-73
2022/03/11 03:05:02;;;;;;;25.50;9.33;;;-5.90;1.00;;;;;;4484267;27;656162;-72
2022/03/11 03:07:50;;;;;;;20.50;8.43;;;-5.90;1.00;;;;;;4508300;27;654835;-72
2022/03/11 03:10:37;;;;;;;29.77;11.73;;;-6.00;1.00;;;;;;4489198;27;655066;-74
2022/03/11 03:13:25;;;;;;;33.17;11.83;;;-6.00;1.00;;;;;;4506964;27;655218;-73
2022/03/11 03:16:17;;;;;;;31.20;10.53;;;-6.00;1.00;;;;;;4488012;27;655382;-74
2022/03/11 03:19:04;;;;;;;37.92;10.68;;;-6.00;1.00;;;;;;4483519;27;655878;-74
2022/03/11 03:21:52;;;;;;;29.13;10.20;;;-6.10;1.00;;;;;;4486275;27;655904;-73
2022/03/11 03:24:40;;;;;;;31.93;10.90;;;-6.10;1.00;;;;;;4506468;27;655858;-74
2022/03/11 03:27:27;;;;;;;31.37;10.70;;;-6.10;1.00;;;;;;4483633;27;656530;-74
2022/03/11 03:30:15;;;;;;;37.28;11.95;;;-6.10;1.00;;;;;;4507038;27;655333;-74
2022/03/11 03:33:04;;;;;;;28.73;11.30;;;-6.20;1.00;;;;;;4483685;27;656650;-74
2022/03/11 03:35:52;;;;;;;31.97;9.93;;;-6.20;1.00;;;;;;4487759;27;655300;-74
2022/03/11 03:38:39;;;;;;;36.73;11.23;;;-6.20;1.00;;;;;;4508051;27;655460;-74
2022/03/11 03:41:27;;;;;;;28.40;10.23;;;-6.20;1.00;;;;;;4486163;27;655381;-74
2022/03/11 03:44:14;;;;;;;29.80;10.67;;;-6.30;1.00;;;;;;4506545;27;656274;-74
2022/03/11 03:47:02;;;;;;;25.37;9.60;;;-6.30;1.00;;;;;;4487070;27;655418;-73
2022/03/11 03:49:51;;;;;;;25.77;10.00;;;-6.30;1.00;;;;;;4507504;27;655449;-74
2022/03/11 03:52:38;;;;;;;29.97;10.53;;;-6.30;1.00;;;;;;4487649;27;655983;-74
2022/03/11 03:55:26;;;;;;;26.57;10.33;;;-6.30;1.00;;;;;;4496132;27;656072;-73
2022/03/11 03:58:14;;;;;;;31.67;10.13;;;-6.30;1.00;;;;;;4506151;27;657185;-74
2022/03/11 04:01:01;;;;;;;25.80;9.67;;;-6.30;1.00;;;;;;4487316;27;655439;-73
2022/03/11 04:03:49;;;;;;;30.70;9.57;;;-6.30;1.00;;;;;;4507546;27;655761;-74
2022/03/11 04:06:38;;;;;;;32.60;10.40;;;-6.30;1.00;;;;;;4488442;27;654433;-73
2022/03/11 04:09:26;;;;;;;25.33;8.60;;;-6.30;1.00;;;;;;4500924;27;656091;-72
2022/03/11 04:12:13;;;;;;;29.70;9.93;;;-6.30;1.00;;;;;;4507160;27;655581;-74
2022/03/11 04:15:01;;;;;;;28.55;9.70;;;-6.30;1.00;;;;;;4492790;27;654455;-72
2022/03/11 04:17:49;;;;;;;23.97;9.00;;;-6.40;1.00;;;;;;4507229;27;655479;-74
2022/03/11 04:20:36;;;;;;;26.67;9.47;;;-6.40;1.00;;;;;;4487902;27;654557;-73
2022/03/11 04:23:25;;;;;;;24.92;9.10;;;-6.40;1.00;;;;;;4508535;27;656174;-74
2022/03/11 04:26:12;;;;;;;26.43;9.93;;;-6.40;1.00;;;;;;4484053;27;655949;-74
2022/03/11 04:29:00;;;;;;;26.63;9.13;;;-6.40;1.00;;;;;;4506976;27;654711;-74
2022/03/11 04:31:47;;;;;;;27.57;9.43;;;-6.40;1.00;;;;;;4483083;27;654946;-74
2022/03/11 04:34:35;;;;;;;32.17;10.10;;;-6.40;1.00;;;;;;4506991;27;654834;-74
2022/03/11 04:37:22;;;;;;;25.63;9.57;;;-6.50;1.00;;;;;;4486610;27;655897;-74
2022/03/11 04:40:19;;;;;;;30.60;10.23;;;-6.50;1.00;;;;;;4507100;27;655104;-74
2022/03/11 04:43:08;;;;;;;33.60;10.43;;;-6.50;1.00;;;;;;4463477;27;655284;-74
2022/03/11 04:45:56;;;;;;;35.05;9.93;;;-6.50;1.00;;;;;;4505694;27;655787;-74
2022/03/11 04:48:47;;;;;;;33.27;11.13;;;-6.50;1.00;;;;;;4483757;27;655134;-74
2022/03/11 04:51:34;;;;;;;35.13;11.20;;;-6.50;1.00;;;;;;4482412;27;656520;-74
2022/03/11 04:54:22;;;;;;;28.87;10.50;;;-6.50;1.00;;;;;;4486208;27;655621;-74
2022/03/11 04:57:20;;;;;;;36.27;11.33;;;-6.50;1.00;;;;;;4505762;27;656222;-74
2022/03/11 05:00:09;;;;;;;23.33;8.47;;;-6.50;1.00;;;;;;4461993;27;655468;-74
2022/03/11 05:03:27;;;;;;;37.20;11.83;;;-6.50;1.00;;;;;;4487637;27;654518;-73
2022/03/11 05:06:15;;;;;;;32.23;10.87;;;-6.50;1.00;;;;;;4482306;27;655944;-74
2022/03/11 05:09:02;;;;;;;29.50;10.77;;;-6.50;1.00;;;;;;4486331;27;655327;-74
2022/03/11 05:11:50;;;;;;;32.25;11.65;;;-6.50;1.00;;;;;;4505306;27;655953;-74
2022/03/11 05:14:39;;;;;;;31.87;11.63;;;-6.50;1.00;;;;;;4486309;27;656287;-73
2022/03/11 05:17:26;;;;;;;32.83;10.77;;;-6.50;1.00;;;;;;4485620;27;655682;-73
2022/03/11 05:20:14;;;;;;;31.80;9.67;;;-6.50;1.00;;;;;;4504783;27;656359;-73
2022/03/11 05:23:01;;;;;;;29.97;10.80;;;-6.50;1.00;;;;;;4487068;27;654461;-73
2022/03/11 05:25:49;;;;;;;28.77;10.77;;;-6.40;1.00;;;;;;4507283;27;656117;-73
2022/03/11 05:28:36;;;;;;;36.63;10.37;;;-6.40;1.00;;;;;;4485794;27;655382;-73
2022/03/11 05:31:26;;;;;;;29.93;10.87;;;-6.40;1.00;;;;;;4506776;27;656045;-74
2022/03/11 05:34:13;;;;;;;32.67;10.87;;;-6.30;1.00;;;;;;4481698;27;656319;-74
2022/03/11 05:37:01;;;;;;;37.75;12.70;;;-6.20;1.00;;;;;;4489605;27;656288;-72
2022/03/11 05:39:49;;;;;;;33.80;10.93;;;-6.20;1.00;;;;;;4508300;27;656085;-74
2022/03/11 05:42:36;;;;;;;40.57;12.57;;;-6.10;1.00;;;;;;4485481;27;655506;-73
2022/03/11 05:45:23;;;;;;;34.53;12.33;;;-6.00;1.00;;;;;;4509129;27;656495;-74
2022/03/11 05:48:13;;;;;;;41.33;13.65;;;-5.90;1.00;;;;;;4485424;27;655554;-72
2022/03/11 05:51:04;;;;;;;37.17;13.07;;;-5.80;1.00;;;;;;4499541;27;655833;-72
2022/03/11 05:53:51;;;;;;;38.70;12.77;;;-5.70;1.00;;;;;;4485846;27;655322;-73
2022/03/11 05:56:39;;;;;;;29.53;9.07;;;-5.60;1.00;;;;;;4508701;27;655822;-74
2022/03/11 05:59:29;;;;;;;37.07;11.63;;;-5.50;1.00;;;;;;4485741;27;654814;-73
2022/03/11 06:02:16;;;;;;;38.23;10.33;;;-5.40;1.00;;;;;;4485551;27;655940;-73
2022/03/11 06:05:12;;;;;;;34.43;11.17;;;-5.30;1.00;;;;;;4508307;27;656357;-73
2022/03/11 06:08:04;;;;;;;26.30;8.98;;;-5.20;1.00;;;;;;4481603;27;656183;-73
2022/03/11 06:10:59;;;;;;;31.73;9.83;;;-5.00;1.00;;;;;;4463645;27;654837;-73
2022/03/11 06:13:52;;;;;;;32.40;8.87;;;-4.90;1.00;;;;;;4484798;27;653955;-73
2022/03/11 06:16:42;;;;;;;38.43;11.00;;;-4.80;1.00;;;;;;4482805;27;654974;-73
2022/03/11 06:19:41;;;;;;;34.00;9.63;;;-4.60;1.00;;;;;;4481599;27;656254;-74
2022/03/11 06:22:40;;;;;;;21.48;7.55;;;-4.50;1.00;;;;;;4456742;27;655180;-72
2022/03/11 06:25:32;;;;;;;28.00;9.20;;;-4.40;1.00;;;;;;4459755;27;654961;-74
2022/03/11 06:28:25;;;;;;;25.97;8.57;;;-4.30;1.00;;;;;;4482545;27;654824;-74
2022/03/11 06:31:21;;;;;;;22.50;7.50;;;-4.20;1.00;;;;;;4459645;27;655487;-74
2022/03/11 06:34:10;;;;;;;25.57;8.20;;;-4.10;1.00;;;;;;4459170;27;655157;-74
2022/03/11 06:36:58;;;;;;;23.03;7.90;;;-4.00;1.00;;;;;;4486550;27;654867;-74
2022/03/11 06:39:51;;;;;;;24.02;8.10;;;-3.90;1.00;;;;;;4486542;27;654389;-72
2022/03/11 06:42:41;;;;;;;19.70;7.90;;;-3.80;1.00;;;;;;4482710;27;655164;-74
2022/03/11 06:45:30;;;;;;;25.27;8.30;;;-3.70;1.00;;;;;;4486825;27;656055;-73
2022/03/11 06:48:27;;;;;;;25.20;8.77;;;-3.60;1.00;;;;;;4482253;27;655124;-73
2022/03/11 06:51:20;;;;;;;22.80;8.37;;;-3.60;1.00;;;;;;4480507;27;654389;-74
2022/03/11 06:54:11;;;;;;;22.33;8.53;;;-3.50;1.00;;;;;;4486687;27;655015;-73
2022/03/11 06:57:07;;;;;;;26.47;8.37;;;-3.40;1.00;;;;;;4482889;27;655392;-74
2022/03/11 06:59:57;;;;;;;20.70;8.00;;;-3.30;1.00;;;;;;4485643;27;654712;-73
2022/03/11 07:02:46;;;;;;;23.50;7.23;;;-3.20;1.00;;;;;;4483576;27;655826;-73
2022/03/11 07:05:33;;;;;;;18.83;7.50;;;-3.20;1.00;;;;;;4485780;27;654883;-73
2022/03/11 07:08:21;;;;;;;18.43;6.97;;;-3.10;1.00;;;;;;4498610;27;654342;-72
2022/03/11 07:11:08;;;;;;;19.73;7.20;;;-3.10;1.00;;;;;;4508852;27;655658;-73
2022/03/11 07:14:04;;;;;;;20.33;7.93;;;-3.00;1.00;;;;;;4490272;27;654786;-72
2022/03/11 07:16:57;;;;;;;19.60;6.90;;;-2.90;1.00;;;;;;4462337;27;654877;-73
2022/03/11 07:19:46;;;;;;;19.93;7.50;;;-2.90;1.00;;;;;;4485154;27;654636;-74
2022/03/11 07:22:39;;;;;;;21.17;7.70;;;-2.80;1.00;;;;;;4484919;27;654649;-73
2022/03/11 07:25:30;;;;;;;20.00;6.77;;;-2.70;1.00;;;;;;4462358;27;655159;-73
2022/03/11 07:28:27;;;;;;;19.70;7.13;;;-2.60;1.00;;;;;;4488658;27;654619;-73
2022/03/11 07:31:22;;;;;;;16.07;6.60;;;-2.50;1.00;;;;;;4485289;27;654729;-73
2022/03/11 07:34:18;;;;;;;20.43;7.40;;;-2.40;1.00;;;;;;4485147;27;655042;-73
2022/03/11 07:37:12;;;;;;;19.03;7.23;;;-2.30;1.00;;;;;;4485034;27;654388;-73
2022/03/11 07:40:02;;;;;;;23.70;8.88;;;-2.20;1.00;;;;;;4484845;27;654546;-73
2022/03/11 07:42:49;;;;;;;19.30;7.13;;;-2.10;1.00;;;;;;4489081;27;654921;-73
2022/03/11 07:45:37;;;;;;;20.43;7.17;;;-1.90;1.00;;;;;;4489024;27;654948;-73
2022/03/11 07:48:36;;;;;;;21.60;8.67;;;-1.80;1.00;;;;;;4508145;27;654586;-73
2022/03/11 07:51:32;;;;;;;19.80;8.10;;;-1.70;1.00;;;;;;4459456;27;654911;-72
2022/03/11 07:54:26;;;;;;;24.77;7.73;;;-1.40;1.00;;;;;;4484898;27;654598;-73
2022/03/11 07:57:17;;;;;;;34.70;8.70;;;-1.30;1.00;;;;;;4484536;27;654647;-73
2022/03/11 08:00:57;;;;;;;20.23;8.87;;;-1.30;1.00;;;;;;4484647;27;654677;-73
2022/03/11 08:03:45;;;;;;;22.40;9.18;;;-1.20;1.00;;;;;;4484422;27;654944;-73
2022/03/11 08:06:33;;;;;;;22.87;8.03;;;-0.90;1.00;;;;;;4484644;27;654651;-71
2022/03/11 08:09:20;;;;;;;21.50;8.27;;;-0.80;1.00;;;;;;4507509;27;654639;-73
2022/03/11 08:12:09;;;;;;;22.70;8.63;;;-0.60;1.00;;;;;;4484392;27;655266;-72
2022/03/11 08:14:57;;;;;;;20.20;8.07;;;-0.50;1.00;;;;;;4488416;27;654659;-72
2022/03/11 08:17:45;;;;;;;20.37;8.03;;;-0.30;1.00;;;;;;4507318;27;654767;-72
2022/03/11 08:20:43;;;;;;;15.17;6.77;;;-0.30;1.00;;;;;;4488542;27;654991;-72
2022/03/11 08:23:36;;;;;;;22.17;8.03;;;-0.20;1.00;;;;;;4472419;27;654966;-71
2022/03/11 08:26:25;;;;;;;20.63;8.77;;;0.00;1.00;;;;;;4481411;27;655206;-72
2022/03/11 08:29:12;;;;;;;21.33;7.60;;;0.20;1.00;;;;;;4485496;27;653807;-72
2022/03/11 08:32:00;;;;;;;19.73;7.60;;;0.40;1.00;;;;;;4508416;27;653122;-72
2022/03/11 08:34:48;;;;;;;19.27;7.23;;;0.50;1.00;;;;;;4485477;27;654576;-71
2022/03/11 08:37:37;;;;;;;18.90;7.83;;;0.70;1.00;;;;;;4504197;27;653162;-71
2022/03/11 08:40:26;;;;;;;16.27;7.65;;;0.70;1.00;;;;;;4508235;27;653668;-72
2022/03/11 08:43:13;;;;;;;17.70;6.57;;;0.90;1.00;;;;;;4487493;27;654020;-72
2022/03/11 08:46:01;;;;;;;14.87;6.80;;;1.10;1.00;;;;;;4498263;27;653772;-71
2022/03/11 08:48:49;;;;;;;16.17;7.33;;;1.20;1.00;;;;;;4510884;27;653283;-71
2022/03/11 08:51:42;;;;;;;15.27;6.73;;;1.30;1.00;;;;;;4489014;27;654265;-71
2022/03/11 08:54:31;;;;;;;20.33;6.70;;;1.50;1.00;;;;;;4485157;27;654305;-72
2022/03/11 08:57:18;;;;;;;18.03;7.07;;;1.50;1.00;;;;;;4484975;27;654695;-71
2022/03/11 09:00:07;;;;;;;18.83;7.27;;;1.70;1.00;;;;;;4489859;27;653422;-72
2022/03/11 09:02:54;;;;;;;14.60;6.30;;;1.90;1.00;;;;;;4508304;27;654363;-72
2022/03/11 09:05:42;;;;;;;16.67;6.97;;;2.00;1.00;;;;;;4488659;27;653440;-72
2022/03/11 09:08:29;;;;;;;27.67;10.00;;;2.20;1.00;;;;;;4507967;27;653767;-72
2022/03/11 09:11:18;;;;;;;19.65;7.78;;;2.40;1.00;;;;;;4487552;27;655087;-72
2022/03/11 09:14:07;;;;;;;20.52;6.50;;;2.70;1.00;;;;;;4488856;27;653410;-71
2022/03/11 09:16:55;;;;;;;18.77;7.23;;;2.80;1.00;;;;;;4507428;27;653661;-72
2022/03/11 09:19:43;;;;;;;22.37;7.03;;;3.10;1.00;;;;;;4484906;27;654510;-71
2022/03/11 09:22:31;;;;;;;10.43;5.20;;;3.40;1.00;;;;;;4489602;27;653422;-71
2022/03/11 09:25:24;;;;;;;17.80;6.20;;;3.30;1.00;;;;;;4507702;27;653561;-72
2022/03/11 09:28:20;;;;;;;11.27;5.63;;;3.30;1.00;;;;;;4488215;27;653689;-71
2022/03/11 09:31:08;;;;;;;15.50;6.17;;;3.50;1.00;;;;;;4461322;27;653578;-71
2022/03/11 09:33:56;;;;;;;115.50;19.67;;;3.70;1.00;;;;;;4505484;27;653444;-71
2022/03/11 09:36:47;;;;;;;12.87;5.43;;;3.90;1.00;;;;;;4505117;27;656187;-72
2022/03/11 09:39:39;;;;;;;12.60;5.40;;;3.90;1.00;;;;;;4482860;27;653789;-72
2022/03/11 09:42:28;;;;;;;12.00;5.47;;;4.00;1.00;;;;;;4462161;27;653820;-72
2022/03/11 09:45:17;;;;;;;12.50;5.80;;;4.20;1.00;;;;;;4507630;27;653635;-72
2022/03/11 09:48:04;;;;;;;16.27;6.40;;;4.40;1.00;;;;;;4484189;27;654303;-73
2022/03/11 09:50:52;;;;;;;36.70;12.27;;;4.40;1.00;;;;;;4488529;27;653383;-73
2022/03/11 09:53:42;;;;;;;24.87;9.97;;;4.60;1.00;;;;;;4505350;27;654971;-72
2022/03/11 09:56:29;;;;;;;12.37;5.90;;;4.70;1.00;;;;;;4484013;27;654446;-73
2022/03/11 09:59:18;;;;;;;15.47;6.20;;;4.30;1.00;;;;;;4488333;27;653160;-72
2022/03/11 10:02:12;;;;;;;10.47;5.47;;;4.20;1.00;;;;;;4507492;27;653423;-73
2022/03/11 10:04:59;;;;;;;12.20;5.73;;;4.40;1.00;;;;;;4483229;27;653487;-73
2022/03/11 10:07:48;;;;;;;11.93;5.33;;;4.60;1.00;;;;;;4487915;27;653125;-72
2022/03/11 10:10:41;;;;;;;14.63;5.37;;;4.50;1.00;;;;;;4507015;27;653680;-73
2022/03/11 10:13:40;;;;;;;14.77;4.97;;;4.30;1.00;;;;;;4484045;27;654147;-72
2022/03/11 10:16:28;;;;;;;12.83;6.10;;;4.20;1.00;;;;;;4460811;27;653518;-72
2022/03/11 10:19:19;;;;;;;14.07;5.90;;;4.40;1.00;;;;;;4507113;27;653429;-73
2022/03/11 10:22:06;;;;;;;17.13;7.30;;;4.60;1.00;;;;;;4464770;27;653948;-72
2022/03/11 10:24:55;;;;;;;19.70;6.67;;;5.20;1.00;;;;;;4511161;27;654785;-72
2022/03/11 10:27:59;;;;;;;11.37;5.03;;;5.30;1.00;;;;;;4487829;27;654745;-72
2022/03/11 10:30:46;;;;;;;12.63;5.80;;;5.40;1.00;;;;;;4467330;27;653247;-72
2022/03/11 10:33:34;;;;;;;10.27;4.83;;;5.50;1.00;;;;;;4513000;27;654008;-72
2022/03/11 10:36:28;;;;;;;15.93;5.17;;;5.40;1.00;;;;;;4491410;27;653554;-72
2022/03/11 10:39:16;;;;;;;10.90;4.70;;;5.60;1.00;;;;;;4468402;27;653897;-72
2022/03/11 10:42:16;;;;;;;13.47;5.30;;;5.70;1.00;;;;;;4515078;27;654561;-72
2022/03/11 10:45:17;;;;;;;15.33;5.50;;;5.60;1.00;;;;;;4487103;27;653783;-72
2022/03/11 10:48:04;;;;;;;12.38;5.07;;;5.90;1.00;;;;;;4486742;27;653412;-73
2022/03/11 10:50:52;;;;;;;12.67;5.47;;;5.70;1.00;;;;;;4490988;27;653616;-72
2022/03/11 10:53:41;;;;;;;18.30;7.03;;;5.70;1.00;;;;;;4510052;27;654088;-72
2022/03/11 10:56:34;;;;;;;18.88;6.45;;;5.40;1.00;;;;;;4487020;27;654098;-72
2022/03/11 10:59:27;;;;;;;28.23;6.53;;;5.80;1.00;;;;;;4489121;27;653807;-71
2022/03/11 11:02:14;;;;;;;21.08;7.65;;;5.90;1.00;;;;;;4490797;27;654012;-72
2022/03/11 11:05:02;;;;;;;13.77;6.07;;;6.20;1.00;;;;;;4490678;27;653507;-72
2022/03/11 11:07:49;;;;;;;11.23;5.57;;;6.30;1.00;;;;;;4509905;27;655029;-72
2022/03/11 11:10:39;;;;;;;15.80;5.73;;;6.00;1.00;;;;;;4490667;27;653762;-72
2022/03/11 11:13:28;;;;;;;11.80;5.40;;;6.30;1.00;;;;;;4490876;27;653747;-72
2022/03/11 11:16:27;;;;;;;14.70;5.73;;;6.50;1.00;;;;;;4509851;27;653428;-72
2022/03/11 11:19:19;;;;;;;10.40;4.90;;;6.30;1.00;;;;;;4486546;27;653603;-72
2022/03/11 11:22:07;;;;;;;15.53;5.53;;;6.10;1.00;;;;;;4467363;27;653559;-72
2022/03/11 11:24:54;;;;;;;47.10;10.60;;;5.90;1.00;;;;;;4509470;27;654886;-73
2022/03/11 11:27:44;;;;;;;17.40;5.53;;;6.20;1.00;;;;;;4489541;27;654484;-72
2022/03/11 11:30:31;;;;;;;11.50;4.70;;;6.70;1.00;;;;;;4490048;27;653648;-73
2022/03/11 11:33:19;;;;;;;14.03;5.00;;;6.90;1.00;;;;;;4508184;27;654128;-72
2022/03/11 11:36:07;;;;;;;11.37;4.80;;;7.00;1.00;;;;;;4490070;27;653277;-71
2022/03/11 11:39:01;;;;;;;11.97;4.70;;;6.90;1.00;;;;;;4509009;27;653653;-72
2022/03/11 11:41:55;;;;;;;9.77;4.83;;;7.50;1.00;;;;;;4462466;27;654516;-72
2022/03/11 11:44:44;;;;;;;9.13;4.33;;;7.70;1.00;;;;;;4490738;27;652298;-72
2022/03/11 11:47:33;;;;;;;8.93;3.90;;;7.80;1.00;;;;;;4491185;27;652420;-72
2022/03/11 11:50:28;;;;;;;10.60;4.90;;;7.70;1.00;;;;;;4510371;27;652749;-72
2022/03/11 11:53:32;;;;;;;10.57;4.00;;;7.60;1.00;;;;;;4485998;27;653752;-72
2022/03/11 11:56:29;;;;;;;9.17;4.40;;;7.70;1.00;;;;;;4485950;27;653615;-72
2022/03/11 11:59:17;;;;;;;11.13;4.90;;;7.50;1.00;;;;;;4465582;27;652686;-72
2022/03/11 12:02:30;;;;;;;7.80;3.92;;;7.80;1.00;;;;;;4508679;27;653443;-72
2022/03/11 12:05:40;;;;;;;12.50;4.60;;;8.10;1.00;;;;;;4491020;27;652237;-72
2022/03/11 12:08:55;;;;;;;11.10;4.40;;;7.80;1.00;;;;;;4462656;27;654107;-72
2022/03/11 12:11:43;;;;;;;7.97;4.00;;;7.60;1.00;;;;;;4390946;28;654121;-72
2022/03/11 12:14:31;;;;;;;11.70;4.30;;;7.40;1.00;;;;;;4433616;28;652453;-71
2022/03/11 12:17:36;;;;;;;11.17;4.53;;;7.30;1.00;;;;;;4435849;28;654284;-72
2022/03/11 12:20:32;;;;;;;11.85;5.28;;;7.30;1.00;;;;;;4413498;28;653590;-72
2022/03/11 12:23:20;;;;;;;9.90;4.13;;;7.50;1.00;;;;;;4413433;28;653254;-72
2022/03/11 12:26:12;;;;;;;10.33;4.17;;;8.00;1.00;;;;;;4414667;28;653265;-72
2022/03/11 12:29:00;;;;;;;10.20;4.67;;;7.60;1.00;;;;;;4413394;28;653667;-72
2022/03/11 12:31:47;;;;;;;10.23;4.20;;;7.90;1.00;;;;;;4417618;28;653628;-72
2022/03/11 12:34:36;;;;;;;13.43;4.30;;;8.30;1.00;;;;;;4436024;28;653414;-72
2022/03/11 12:37:25;;;;;;;10.33;4.07;;;8.10;1.00;;;;;;4413236;28;654021;-72
2022/03/11 12:40:13;;;;;;;9.40;3.80;;;7.70;1.00;;;;;;4413460;28;655051;-72
2022/03/11 12:43:02;;;;;;;7.57;3.87;;;8.00;1.00;;;;;;4420624;28;652250;-72
2022/03/11 12:45:51;;;;;;;11.30;4.60;;;8.20;1.00;;;;;;4435344;28;652478;-72
2022/03/11 12:48:40;;;;;;;9.02;4.10;;;7.70;1.00;;;;;;4400142;28;653952;-72
2022/03/11 12:51:29;;;;;;;11.27;4.47;;;7.80;1.00;;;;;;4453907;27;651978;-71
2022/03/11 12:54:17;;;;;;;15.17;4.67;;;8.10;1.00;;;;;;4472008;27;653373;-72
2022/03/11 12:57:21;;;;;;;7.33;4.17;;;8.50;1.00;;;;;;4490611;27;653702;-72
2022/03/11 13:00:18;;;;;;;15.13;7.57;;;8.90;1.00;;;;;;4469141;27;652730;-72
2022/03/11 13:03:08;;;;;;;9.63;3.40;;;9.00;1.00;;;;;;4467716;27;654041;-72
2022/03/11 13:05:55;;;;;;;8.20;4.27;;;9.10;1.00;;;;;;4469065;27;652542;-72
2022/03/11 13:08:45;;;;;;;10.00;4.53;;;9.10;1.00;;;;;;4468764;27;652794;-72
2022/03/11 13:11:32;;;;;;;10.00;4.37;;;9.40;1.00;;;;;;4468333;27;654008;-72
2022/03/11 13:14:20;;;;;;;11.67;4.63;;;9.80;1.00;;;;;;4488283;27;653070;-72
2022/03/11 13:17:08;;;;;;;8.53;4.40;;;10.00;1.00;;;;;;4467636;27;654023;-72
2022/03/11 13:19:55;;;;;;;10.47;4.53;;;10.00;1.00;;;;;;4490349;27;653429;-72
2022/03/11 13:22:49;;;;;;;10.63;4.73;;;10.50;1.00;;;;;;4465803;27;655346;-72
2022/03/11 13:25:39;;;;;;;10.13;4.80;;;10.60;1.00;;;;;;4447102;27;655333;-72
2022/03/11 13:28:28;;;;;;;11.37;4.60;;;10.80;1.00;;;;;;4469912;27;654596;-71
2022/03/11 13:31:19;;;;;;;8.73;4.60;;;10.70;1.00;;;;;;4481435;27;654513;-72
2022/03/11 13:34:08;;;;;;;12.73;5.53;;;10.80;1.00;;;;;;4470550;27;653804;-72
2022/03/11 13:36:56;;;;;;;12.10;4.70;;;11.10;1.00;;;;;;4476874;27;654376;-72
2022/03/11 13:39:44;;;;;;;28.20;9.60;;;11.00;1.00;;;;;;4489204;27;655273;-72
2022/03/11 13:42:32;;;;;;;29.60;10.33;;;11.30;1.00;;;;;;4469809;27;654492;-72
2022/03/11 13:45:21;;;;;;;14.35;5.22;;;11.30;1.00;;;;;;4487687;27;655795;-72
2022/03/11 13:48:10;;;;;;;13.80;6.07;;;11.20;1.00;;;;;;4478271;27;655712;-71
2022/03/11 13:51:08;;;;;;;8.13;4.27;;;12.00;1.00;;;;;;4486233;27;654377;-71
2022/03/11 13:53:58;;;;;;;9.53;4.70;;;12.20;1.00;;;;;;4472051;27;653404;-71
2022/03/11 13:56:48;;;;;;;15.03;5.00;;;12.70;1.00;;;;;;4487987;27;654116;-71
2022/03/11 13:59:38;;;;;;;9.70;5.27;;;13.30;1.00;;;;;;4502135;27;654639;-71
2022/03/11 14:02:27;;;;;;;9.33;4.63;;;13.60;1.00;;;;;;4492185;27;653355;-71
2022/03/11 14:05:16;;;;;;;17.23;5.37;;;14.10;1.00;;;;;;4511122;27;653232;-71
2022/03/11 14:08:05;;;;;;;11.30;5.10;;;15.20;1.00;;;;;;4490616;27;654839;-71
2022/03/11 14:10:54;;;;;;;10.07;4.83;;;15.80;1.00;;;;;;4486209;27;655354;-71
2022/03/11 14:13:42;;;;;;;12.23;4.67;;;16.80;1.00;;;;;;4490481;27;654782;-71
2022/03/11 14:16:31;;;;;;;9.43;4.40;;;17.10;1.00;;;;;;4509528;27;655365;-72
2022/03/11 14:19:18;;;;;;;20.10;5.23;;;17.00;1.00;;;;;;4489059;27;654148;-71
2022/03/11 14:22:06;;;;;;;16.17;5.17;;;17.40;1.00;;;;;;4493173;27;655012;-71
2022/03/11 14:24:57;;;;;;;22.53;6.50;;;18.60;1.00;;;;;;4509339;27;655425;-71
2022/03/11 14:27:44;;;;;;;11.07;4.33;;;19.60;1.00;;;;;;4486260;27;654492;-71
2022/03/11 14:30:32;;;;;;;8.60;4.30;;;20.00;1.00;;;;;;4487939;27;654434;-71
2022/03/11 14:33:21;;;;;;;11.07;5.07;;;20.50;1.00;;;;;;4510447;27;654473;-71
2022/03/11 14:36:08;;;;;;;20.60;5.87;;;21.00;1.00;;;;;;4489327;27;655664;-71